Scunthorpe, United Kingdom
Current Conditions -  °F | °C
As of 11:20 AM on Saturday 22 Nov 2014 (Local Time) from EGNJ Reporting Station
Haze Haze  
Wind Chill: 13°   Ceiling: Unl
Heat Index: 13°   Visibility: 3mi
Dew Point: 12°   Wind: 13mph
Humidity: 94%   Direction: 190°S
Pressure: 29.85"   Gusts: NA
Location:  53.58°N, 0.65°W
Report Text: EGNJ 221120Z 19011KT 5000 HZ FEW016 13/12 Q1011
Loading
Personal Weather Stations






























Interactive Weather Map New forecast layout! Learn more

10-Day Weather Forecast

Advertisements
Track Severe Weather on mobile